Time;durP1;ratioP1;P1;durP2;ratioP2;P2;SDS_P1;SDS_P2;PMS_P1;PMS_P2;Temp;Humidity;BMP_temperature;BMP_pressure;BME280_temperature;BME280_humidity;BME280_pressure;Samples;Min_cycle;Max_cycle;Signal;HPM_P1;HPM_P2
2023/07/27 00:02:02;;;;;;;3.17;2.72;;;;;;;;;;5013060;28;25102;-68
2023/07/27 00:04:28;;;;;;;6.25;3.33;;;;;;;;;;5016361;28;25071;-68
2023/07/27 00:06:54;;;;;;;6.00;3.42;;;;;;;;;;5020295;28;25146;-67
2023/07/27 00:09:20;;;;;;;7.82;3.20;;;;;;;;;;5014537;28;25051;-67
2023/07/27 00:11:46;;;;;;;4.63;2.60;;;;;;;;;;5014848;28;25114;-67
2023/07/27 00:14:12;;;;;;;5.07;2.78;;;;;;;;;;5006074;28;25070;-69
2023/07/27 00:16:38;;;;;;;8.32;3.55;;;;;;;;;;5013440;28;25068;-68
2023/07/27 00:19:04;;;;;;;4.45;2.80;;;;;;;;;;5013723;28;25068;-66
2023/07/27 00:21:30;;;;;;;11.20;3.15;;;;;;;;;;4999971;28;25066;-68
2023/07/27 00:23:56;;;;;;;8.88;3.30;;;;;;;;;;5006883;28;25083;-67
2023/07/27 00:26:22;;;;;;;5.05;2.83;;;;;;;;;;5013174;28;25143;-68
2023/07/27 00:28:48;;;;;;;8.55;3.00;;;;;;;;;;5002866;28;25059;-67
2023/07/27 00:31:14;;;;;;;3.10;2.42;;;;;;;;;;5007966;28;25139;-67
2023/07/27 00:33:40;;;;;;;7.55;2.97;;;;;;;;;;5007694;28;25169;-67
2023/07/27 00:36:06;;;;;;;12.30;3.30;;;;;;;;;;4994636;28;25074;-67
2023/07/27 00:38:32;;;;;;;5.20;2.28;;;;;;;;;;4993297;28;25100;-67
2023/07/27 00:40:58;;;;;;;7.82;2.90;;;;;;;;;;5009944;28;25069;-66
2023/07/27 00:43:24;;;;;;;7.05;2.90;;;;;;;;;;5014327;28;25056;-68
2023/07/27 00:45:50;;;;;;;5.40;3.08;;;;;;;;;;5004639;28;25049;-66
2023/07/27 00:48:16;;;;;;;3.03;2.33;;;;;;;;;;5010512;28;25055;-67
2023/07/27 00:50:42;;;;;;;3.17;2.22;;;;;;;;;;5015348;28;25148;-68
2023/07/27 00:53:09;;;;;;;2.53;2.33;;;;;;;;;;5009339;28;25078;-67
2023/07/27 00:55:35;;;;;;;5.72;2.58;;;;;;;;;;5010124;28;25068;-67
2023/07/27 00:58:02;;;;;;;4.55;2.40;;;;;;;;;;5008598;28;25137;-67
2023/07/27 01:00:30;;;;;;;6.78;2.83;;;;;;;;;;5004708;28;25135;-68
2023/07/27 01:02:56;;;;;;;3.65;2.30;;;;;;;;;;5001981;28;25073;-68
2023/07/27 01:05:22;;;;;;;5.93;3.03;;;;;;;;;;4998004;28;25064;-68
2023/07/27 01:07:48;;;;;;;7.80;2.92;;;;;;;;;;5004473;28;25115;-67
2023/07/27 01:10:14;;;;;;;5.40;2.78;;;;;;;;;;5014850;28;25080;-67
2023/07/27 01:12:49;;;;;;;2.95;2.45;;;;;;;;;;5006371;28;25052;-67
2023/07/27 01:15:16;;;;;;;9.65;3.50;;;;;;;;;;5011461;28;25070;-67
2023/07/27 01:17:50;;;;;;;7.47;4.32;;;;;;;;;;4995330;28;25088;-67
2023/07/27 01:20:42;;;;;;;9.40;5.60;;;;;;;;;;5009924;28;25093;-67
2023/07/27 01:23:08;;;;;;;13.70;5.50;;;;;;;;;;4999715;28;25065;-67
2023/07/27 01:25:38;;;;;;;8.48;5.30;;;;;;;;;;5008652;28;25077;-68
2023/07/27 01:28:06;;;;;;;9.20;5.53;;;;;;;;;;5009612;28;24940;-68
2023/07/27 01:31:08;;;;;;;8.05;5.28;;;;;;;;;;4999413;28;25081;-68
2023/07/27 01:33:42;;;;;;;9.77;5.03;;;;;;;;;;4978948;28;25077;-68
2023/07/27 01:36:08;;;;;;;10.88;5.07;;;;;;;;;;4998519;28;25121;-68
2023/07/27 01:38:36;;;;;;;7.18;3.97;;;;;;;;;;5001097;28;25082;-68
2023/07/27 01:41:03;;;;;;;6.32;4.35;;;;;;;;;;4998047;28;25083;-67
2023/07/27 01:43:29;;;;;;;6.57;4.10;;;;;;;;;;5001810;28;25065;-68
2023/07/27 01:45:57;;;;;;;9.07;4.35;;;;;;;;;;5008741;28;25165;-67
2023/07/27 01:48:26;;;;;;;7.95;4.07;;;;;;;;;;4999212;28;25093;-68
2023/07/27 01:50:52;;;;;;;5.57;4.25;;;;;;;;;;5011374;28;25078;-68
2023/07/27 01:53:18;;;;;;;6.03;4.22;;;;;;;;;;5012169;28;25053;-69
2023/07/27 01:55:45;;;;;;;9.73;4.70;;;;;;;;;;5006562;28;25077;-69
2023/07/27 01:58:11;;;;;;;10.85;5.68;;;;;;;;;;4995491;28;25068;-69
2023/07/27 02:00:37;;;;;;;9.50;4.82;;;;;;;;;;5003254;28;25072;-68
2023/07/27 02:03:03;;;;;;;11.60;5.70;;;;;;;;;;5002525;28;25159;-68
2023/07/27 02:05:29;;;;;;;8.98;5.70;;;;;;;;;;5003740;28;25075;-68
2023/07/27 02:07:55;;;;;;;16.48;6.55;;;;;;;;;;5000246;28;25106;-67
2023/07/27 02:10:22;;;;;;;11.75;7.28;;;;;;;;;;5012362;28;25123;-69
2023/07/27 02:12:51;;;;;;;12.43;6.95;;;;;;;;;;5004661;28;25170;-68
2023/07/27 02:15:24;;;;;;;16.40;8.13;;;;;;;;;;5007616;28;25071;-69
2023/07/27 02:17:52;;;;;;;20.23;10.32;;;;;;;;;;4996630;28;25110;-68
2023/07/27 02:20:20;;;;;;;19.55;10.38;;;;;;;;;;5003085;28;25136;-68
2023/07/27 02:22:46;;;;;;;25.23;12.70;;;;;;;;;;5008395;28;25078;-67
2023/07/27 02:25:13;;;;;;;20.83;12.23;;;;;;;;;;5013844;28;25066;-68
2023/07/27 02:27:39;;;;;;;22.95;11.55;;;;;;;;;;5015433;28;25078;-67
2023/07/27 02:30:05;;;;;;;24.00;12.07;;;;;;;;;;5014109;28;25133;-66
2023/07/27 02:32:32;;;;;;;21.63;13.27;;;;;;;;;;5005620;28;25048;-67
2023/07/27 02:34:58;;;;;;;24.95;13.10;;;;;;;;;;5001765;28;25076;-65
2023/07/27 02:37:24;;;;;;;25.25;13.82;;;;;;;;;;5005696;28;25136;-66
2023/07/27 02:39:50;;;;;;;25.48;14.23;;;;;;;;;;5005956;28;25156;-66
2023/07/27 02:42:16;;;;;;;26.50;13.63;;;;;;;;;;5011245;28;25093;-66
2023/07/27 02:44:42;;;;;;;25.17;13.90;;;;;;;;;;5011740;28;25103;-68
2023/07/27 02:47:08;;;;;;;18.33;11.18;;;;;;;;;;5007974;28;25054;-65
2023/07/27 02:49:34;;;;;;;21.30;12.05;;;;;;;;;;5008653;28;25093;-65
2023/07/27 02:52:00;;;;;;;18.92;11.30;;;;;;;;;;5012993;28;25088;-67
2023/07/27 02:54:26;;;;;;;23.65;11.85;;;;;;;;;;5007183;28;25116;-67
2023/07/27 02:56:52;;;;;;;21.10;11.63;;;;;;;;;;5010148;28;25057;-66
2023/07/27 02:59:18;;;;;;;27.42;11.75;;;;;;;;;;5012349;28;25067;-68
2023/07/27 03:01:44;;;;;;;23.30;12.43;;;;;;;;;;5009442;28;25103;-67
2023/07/27 03:04:10;;;;;;;30.95;13.55;;;;;;;;;;5007602;28;25073;-68
2023/07/27 03:06:38;;;;;;;28.13;13.23;;;;;;;;;;5005590;28;25073;-66
2023/07/27 03:09:03;;;;;;;28.25;14.13;;;;;;;;;;5012593;28;25048;-67
2023/07/27 03:11:29;;;;;;;24.77;13.02;;;;;;;;;;5006497;28;25150;-67
2023/07/27 03:13:59;;;;;;;24.88;13.50;;;;;;;;;;5006989;28;25135;-68
2023/07/27 03:16:25;;;;;;;25.02;11.98;;;;;;;;;;5018721;28;25072;-67
2023/07/27 03:18:51;;;;;;;20.70;10.68;;;;;;;;;;5005258;28;25129;-68
2023/07/27 03:21:17;;;;;;;23.00;11.60;;;;;;;;;;5004777;28;25102;-68
2023/07/27 03:23:43;;;;;;;23.98;12.02;;;;;;;;;;5005277;28;25079;-68
2023/07/27 03:26:12;;;;;;;17.70;10.27;;;;;;;;;;5012085;28;25146;-67
2023/07/27 03:28:38;;;;;;;23.63;12.02;;;;;;;;;;5013629;28;24850;-68
2023/07/27 03:31:14;;;;;;;23.27;12.05;;;;;;;;;;5009564;28;25058;-68
2023/07/27 03:33:40;;;;;;;27.85;12.55;;;;;;;;;;5002741;28;25132;-68
2023/07/27 03:36:06;;;;;;;27.05;12.80;;;;;;;;;;5008973;28;25135;-68
2023/07/27 03:38:32;;;;;;;21.00;11.90;;;;;;;;;;5007216;28;25090;-67
2023/07/27 03:40:58;;;;;;;27.33;12.80;;;;;;;;;;5010371;28;25102;-67
2023/07/27 03:43:24;;;;;;;25.83;12.43;;;;;;;;;;5011147;28;25066;-68
2023/07/27 03:45:54;;;;;;;26.08;13.23;;;;;;;;;;4998019;28;25178;-67
2023/07/27 03:48:20;;;;;;;25.00;12.70;;;;;;;;;;5016859;28;25070;-66
2023/07/27 03:50:46;;;;;;;27.95;14.23;;;;;;;;;;5009859;28;25143;-67
2023/07/27 03:53:12;;;;;;;19.98;12.45;;;;;;;;;;5006000;28;25188;-66
2023/07/27 03:55:38;;;;;;;23.58;12.25;;;;;;;;;;5005984;28;25106;-69
2023/07/27 03:58:04;;;;;;;24.15;11.57;;;;;;;;;;5017288;28;25156;-68
2023/07/27 04:00:30;;;;;;;21.60;11.95;;;;;;;;;;5006773;28;25062;-66
2023/07/27 04:02:56;;;;;;;17.33;11.30;;;;;;;;;;5012344;28;25084;-70
2023/07/27 04:05:22;;;;;;;22.23;11.13;;;;;;;;;;5009928;28;25089;-68
2023/07/27 04:07:49;;;;;;;17.98;9.48;;;;;;;;;;5001205;28;25113;-68
2023/07/27 04:10:16;;;;;;;20.77;11.00;;;;;;;;;;5014527;28;25053;-66
2023/07/27 04:12:42;;;;;;;16.13;10.07;;;;;;;;;;5005453;28;25113;-68
2023/07/27 04:15:08;;;;;;;16.10;9.52;;;;;;;;;;5007661;28;25156;-67
2023/07/27 04:17:34;;;;;;;18.38;9.60;;;;;;;;;;5009496;28;25050;-67
2023/07/27 04:20:00;;;;;;;12.43;8.35;;;;;;;;;;4996337;28;25074;-67
2023/07/27 04:22:26;;;;;;;14.85;8.80;;;;;;;;;;5001949;28;25086;-67
2023/07/27 04:24:52;;;;;;;13.57;7.70;;;;;;;;;;5009760;28;25139;-67
2023/07/27 04:27:18;;;;;;;18.58;9.70;;;;;;;;;;4995177;28;25093;-67
2023/07/27 04:29:44;;;;;;;15.60;8.88;;;;;;;;;;5002848;28;25079;-67
2023/07/27 04:32:10;;;;;;;15.70;8.98;;;;;;;;;;5010502;28;25059;-66
2023/07/27 04:34:36;;;;;;;10.00;7.18;;;;;;;;;;5015903;28;25069;-66
2023/07/27 04:37:02;;;;;;;12.15;7.55;;;;;;;;;;5002583;28;25117;-68
2023/07/27 04:39:28;;;;;;;11.60;6.93;;;;;;;;;;5004679;28;25056;-66
2023/07/27 04:41:54;;;;;;;12.30;7.63;;;;;;;;;;5004715;28;25009;-66
2023/07/27 04:44:20;;;;;;;12.68;7.22;;;;;;;;;;5001269;28;25066;-68
2023/07/27 04:46:46;;;;;;;9.43;6.70;;;;;;;;;;5005127;28;25061;-68
2023/07/27 04:49:12;;;;;;;9.43;5.85;;;;;;;;;;5015084;28;25156;-67
2023/07/27 04:51:38;;;;;;;10.18;6.50;;;;;;;;;;5008795;28;25138;-66
2023/07/27 04:54:04;;;;;;;10.95;6.55;;;;;;;;;;5004693;28;25090;-66
2023/07/27 04:56:30;;;;;;;6.28;5.63;;;;;;;;;;5006980;28;25076;-68
2023/07/27 04:58:57;;;;;;;9.77;6.00;;;;;;;;;;5005098;28;25051;-66
2023/07/27 05:01:23;;;;;;;11.65;6.85;;;;;;;;;;4993755;28;25071;-66
2023/07/27 05:03:51;;;;;;;8.05;5.15;;;;;;;;;;5008659;28;25185;-67
2023/07/27 05:06:16;;;;;;;10.23;6.32;;;;;;;;;;5000531;28;25149;-67
2023/07/27 05:08:42;;;;;;;9.55;5.78;;;;;;;;;;5009356;28;25061;-65
2023/07/27 05:11:09;;;;;;;6.45;4.93;;;;;;;;;;5013672;28;25121;-65
2023/07/27 05:13:35;;;;;;;7.28;4.90;;;;;;;;;;5009555;28;25126;-66
2023/07/27 05:16:02;;;;;;;7.13;5.57;;;;;;;;;;5008988;28;25129;-67
2023/07/27 05:18:28;;;;;;;6.32;4.68;;;;;;;;;;5002947;28;25098;-65
2023/07/27 05:20:54;;;;;;;7.25;4.72;;;;;;;;;;4997653;28;25165;-66
2023/07/27 05:23:20;;;;;;;6.70;4.53;;;;;;;;;;5008225;28;25156;-65
2023/07/27 05:25:47;;;;;;;6.55;4.65;;;;;;;;;;5009373;28;25071;-64
2023/07/27 05:28:13;;;;;;;4.97;3.67;;;;;;;;;;5004018;28;25049;-66
2023/07/27 05:30:39;;;;;;;5.97;3.67;;;;;;;;;;5003308;28;25063;-67
2023/07/27 05:33:05;;;;;;;6.68;4.43;;;;;;;;;;5001598;28;25098;-67
2023/07/27 05:35:31;;;;;;;5.95;4.43;;;;;;;;;;5010746;28;25084;-65
2023/07/27 05:37:58;;;;;;;5.20;4.55;;;;;;;;;;5006672;28;25095;-68
2023/07/27 05:40:24;;;;;;;7.70;5.47;;;;;;;;;;5006468;28;25174;-65
2023/07/27 05:42:50;;;;;;;6.43;5.10;;;;;;;;;;5012702;28;25055;-66
2023/07/27 05:45:16;;;;;;;7.13;5.53;;;;;;;;;;5009579;28;25066;-65
2023/07/27 05:47:42;;;;;;;9.27;5.97;;;;;;;;;;5007244;28;25081;-63
2023/07/27 05:50:08;;;;;;;6.88;5.95;;;;;;;;;;5010622;28;25064;-64
2023/07/27 05:52:34;;;;;;;7.15;6.45;;;;;;;;;;5013633;28;25061;-64
2023/07/27 05:55:00;;;;;;;8.38;6.63;;;;;;;;;;5002775;28;25129;-65
2023/07/27 05:57:26;;;;;;;7.93;6.75;;;;;;;;;;5005552;28;25072;-65
2023/07/27 05:59:52;;;;;;;8.00;6.78;;;;;;;;;;5016578;28;25061;-65
2023/07/27 06:02:18;;;;;;;8.32;6.82;;;;;;;;;;5004441;28;25149;-65
2023/07/27 06:04:44;;;;;;;8.77;7.18;;;;;;;;;;5009306;28;25151;-65
2023/07/27 06:07:10;;;;;;;8.88;7.40;;;;;;;;;;5008279;28;25051;-65
2023/07/27 06:09:36;;;;;;;8.90;7.68;;;;;;;;;;5005151;28;25053;-64
2023/07/27 06:12:15;;;;;;;8.70;7.50;;;;;;;;;;5011530;28;25072;-64
2023/07/27 06:14:41;;;;;;;8.27;7.30;;;;;;;;;;5000664;28;25069;-65
2023/07/27 06:17:07;;;;;;;7.63;6.93;;;;;;;;;;4994388;28;25145;-65
2023/07/27 06:19:33;;;;;;;6.68;6.00;;;;;;;;;;5004258;28;25078;-66
2023/07/27 06:21:59;;;;;;;8.32;6.93;;;;;;;;;;4998123;28;25130;-65
2023/07/27 06:24:25;;;;;;;7.30;6.45;;;;;;;;;;5004802;28;25057;-64
2023/07/27 06:26:51;;;;;;;8.20;6.47;;;;;;;;;;4995816;28;25076;-66
2023/07/27 06:29:17;;;;;;;7.93;5.90;;;;;;;;;;5004045;28;25067;-66
2023/07/27 06:31:43;;;;;;;5.40;4.72;;;;;;;;;;5004931;28;25061;-65
2023/07/27 06:34:09;;;;;;;6.10;4.30;;;;;;;;;;5001424;28;25086;-65
2023/07/27 06:36:35;;;;;;;4.93;4.43;;;;;;;;;;5002992;28;25076;-66
2023/07/27 06:39:01;;;;;;;4.10;3.80;;;;;;;;;;5008764;28;25150;-66
2023/07/27 06:41:27;;;;;;;4.75;4.25;;;;;;;;;;5007220;28;25134;-67
2023/07/27 06:43:53;;;;;;;5.03;4.57;;;;;;;;;;5005836;28;25157;-66
2023/07/27 06:46:20;;;;;;;4.68;4.20;;;;;;;;;;5001593;28;25054;-66
2023/07/27 06:48:46;;;;;;;4.13;3.78;;;;;;;;;;5004178;28;25134;-68
2023/07/27 06:51:12;;;;;;;5.57;3.60;;;;;;;;;;4998557;28;25163;-64
2023/07/27 06:53:38;;;;;;;3.67;2.95;;;;;;;;;;5003548;28;25057;-67
2023/07/27 06:56:04;;;;;;;4.72;3.80;;;;;;;;;;5001373;28;25090;-64
2023/07/27 06:58:31;;;;;;;7.95;3.83;;;;;;;;;;5002541;28;25070;-65
2023/07/27 07:00:57;;;;;;;4.03;2.85;;;;;;;;;;5017560;28;25091;-66
2023/07/27 07:03:23;;;;;;;5.78;3.17;;;;;;;;;;5007308;28;25076;-64
2023/07/27 07:05:49;;;;;;;3.55;3.10;;;;;;;;;;5013793;28;25108;-65
2023/07/27 07:08:15;;;;;;;7.45;3.42;;;;;;;;;;5009632;28;25139;-65
2023/07/27 07:10:41;;;;;;;4.43;3.40;;;;;;;;;;4998204;28;25132;-67
2023/07/27 07:13:07;;;;;;;5.03;2.97;;;;;;;;;;4996304;28;25118;-66
2023/07/27 07:15:33;;;;;;;4.88;3.20;;;;;;;;;;5003834;28;25078;-63
2023/07/27 07:17:59;;;;;;;5.10;3.60;;;;;;;;;;4999060;28;25056;-64
2023/07/27 07:20:25;;;;;;;4.50;3.20;;;;;;;;;;4995217;28;25075;-65
2023/07/27 07:22:51;;;;;;;12.60;3.38;;;;;;;;;;5009696;28;25075;-65
2023/07/27 07:25:17;;;;;;;5.57;3.88;;;;;;;;;;5010846;28;25067;-66
2023/07/27 07:27:43;;;;;;;4.43;3.80;;;;;;;;;;5004024;28;25079;-64
2023/07/27 07:30:09;;;;;;;6.10;4.07;;;;;;;;;;5001438;28;25067;-65
2023/07/27 07:32:35;;;;;;;4.90;4.03;;;;;;;;;;5013636;28;25174;-66
2023/07/27 07:35:02;;;;;;;4.65;3.92;;;;;;;;;;5010088;28;25069;-66
2023/07/27 07:37:28;;;;;;;6.60;4.07;;;;;;;;;;5007670;28;25163;-66
2023/07/27 07:39:54;;;;;;;4.32;3.38;;;;;;;;;;5013545;28;25117;-66
2023/07/27 07:42:20;;;;;;;4.15;3.35;;;;;;;;;;5002028;28;25072;-66
2023/07/27 07:44:49;;;;;;;5.80;4.20;;;;;;;;;;5002031;28;25096;-65
2023/07/27 07:47:15;;;;;;;6.10;4.60;;;;;;;;;;5002571;28;25064;-64
2023/07/27 07:49:41;;;;;;;6.90;4.32;;;;;;;;;;5007506;28;25063;-65
2023/07/27 07:52:07;;;;;;;7.03;4.53;;;;;;;;;;5010230;28;25082;-66
2023/07/27 07:54:33;;;;;;;6.50;4.60;;;;;;;;;;5008254;28;25071;-68
2023/07/27 07:56:59;;;;;;;5.20;4.47;;;;;;;;;;5016303;28;25054;-65
2023/07/27 07:59:25;;;;;;;7.03;5.25;;;;;;;;;;5014499;28;25081;-63
2023/07/27 08:01:51;;;;;;;8.43;4.75;;;;;;;;;;5006289;28;25086;-65
2023/07/27 08:04:18;;;;;;;6.88;4.25;;;;;;;;;;5011200;28;25065;-65
2023/07/27 08:06:44;;;;;;;4.00;3.60;;;;;;;;;;5003954;28;25089;-64
2023/07/27 08:09:10;;;;;;;4.57;4.05;;;;;;;;;;4998848;28;25074;-65
2023/07/27 08:11:36;;;;;;;5.00;4.30;;;;;;;;;;5006500;28;25077;-64
2023/07/27 08:14:02;;;;;;;5.90;4.13;;;;;;;;;;5005838;28;25066;-67
2023/07/27 08:16:32;;;;;;;4.80;4.28;;;;;;;;;;5004202;28;25074;-65
2023/07/27 08:18:58;;;;;;;5.38;4.40;;;;;;;;;;5007533;28;25060;-67
2023/07/27 08:21:24;;;;;;;14.30;4.88;;;;;;;;;;5000606;28;25066;-67
2023/07/27 08:23:51;;;;;;;7.00;5.32;;;;;;;;;;5004181;28;25082;-71
2023/07/27 08:26:18;;;;;;;4.88;4.15;;;;;;;;;;5004910;28;25061;-67
2023/07/27 08:28:45;;;;;;;9.50;5.53;;;;;;;;;;5000376;28;25071;-68
2023/07/27 08:31:11;;;;;;;8.00;5.07;;;;;;;;;;5008426;28;25070;-68
2023/07/27 08:33:38;;;;;;;7.88;5.15;;;;;;;;;;4998603;28;25152;-69
2023/07/27 08:36:04;;;;;;;5.93;5.03;;;;;;;;;;5012697;28;25052;-68
2023/07/27 08:38:31;;;;;;;9.10;4.63;;;;;;;;;;5001529;28;25064;-67
2023/07/27 08:41:01;;;;;;;6.05;4.28;;;;;;;;;;5014759;28;25132;-66
2023/07/27 08:43:27;;;;;;;4.35;3.60;;;;;;;;;;5012897;28;25064;-68
2023/07/27 08:45:53;;;;;;;5.35;4.15;;;;;;;;;;5012116;28;25067;-66
2023/07/27 08:48:20;;;;;;;10.35;3.80;;;;;;;;;;5006232;28;25070;-67
2023/07/27 08:50:48;;;;;;;5.63;4.47;;;;;;;;;;5006302;28;25067;-71
2023/07/27 08:53:15;;;;;;;6.70;4.50;;;;;;;;;;5013726;28;25088;-67
2023/07/27 08:55:41;;;;;;;6.25;5.13;;;;;;;;;;5012206;28;25052;-67
2023/07/27 08:58:08;;;;;;;6.53;4.63;;;;;;;;;;5009541;28;25149;-67
2023/07/27 09:00:34;;;;;;;6.57;4.78;;;;;;;;;;5018023;28;25092;-67
2023/07/27 09:03:00;;;;;;;6.68;4.88;;;;;;;;;;5011078;28;25097;-68
2023/07/27 09:05:42;;;;;;;6.20;4.30;;;;;;;;;;5003395;28;25116;-67
2023/07/27 09:08:14;;;;;;;6.87;4.50;;;;;;;;;;4996037;28;25086;-67
2023/07/27 09:10:41;;;;;;;6.40;4.45;;;;;;;;;;5006373;28;25081;-68
2023/07/27 09:13:08;;;;;;;6.03;3.78;;;;;;;;;;5010874;28;25083;-68
2023/07/27 09:15:35;;;;;;;5.75;4.32;;;;;;;;;;4998782;28;25162;-69
2023/07/27 09:18:03;;;;;;;5.90;3.88;;;;;;;;;;5009564;28;25066;-67
2023/07/27 09:20:29;;;;;;;5.10;4.10;;;;;;;;;;5007224;28;25058;-66
2023/07/27 09:22:56;;;;;;;5.40;2.95;;;;;;;;;;5004762;28;25077;-67
2023/07/27 09:25:22;;;;;;;6.10;3.53;;;;;;;;;;5012136;28;25079;-67
2023/07/27 09:27:51;;;;;;;5.22;3.58;;;;;;;;;;5005455;28;25094;-67
2023/07/27 09:30:17;;;;;;;6.78;3.95;;;;;;;;;;5007686;28;25153;-68
2023/07/27 09:32:43;;;;;;;6.25;3.75;;;;;;;;;;5003916;28;25083;-67
2023/07/27 09:35:16;;;;;;;5.70;3.90;;;;;;;;;;5006670;28;25102;-66
2023/07/27 09:37:45;;;;;;;5.68;3.25;;;;;;;;;;5014676;28;25148;-69
2023/07/27 09:40:13;;;;;;;6.68;3.70;;;;;;;;;;5003508;28;25153;-67
2023/07/27 09:42:40;;;;;;;3.80;3.33;;;;;;;;;;5004824;28;25083;-65
2023/07/27 09:45:06;;;;;;;5.45;3.50;;;;;;;;;;5011208;28;25071;-67
2023/07/27 09:47:32;;;;;;;5.40;3.70;;;;;;;;;;5002490;28;25100;-65
2023/07/27 09:50:02;;;;;;;7.78;3.55;;;;;;;;;;5009476;28;25136;-64
2023/07/27 09:52:29;;;;;;;3.80;3.22;;;;;;;;;;4991897;28;25103;-64
2023/07/27 09:54:55;;;;;;;4.68;3.72;;;;;;;;;;5010222;28;25149;-62
2023/07/27 09:57:22;;;;;;;4.95;3.58;;;;;;;;;;5008216;28;25079;-65
2023/07/27 09:59:48;;;;;;;3.78;3.33;;;;;;;;;;5015392;28;25103;-65
2023/07/27 10:02:14;;;;;;;3.20;2.95;;;;;;;;;;5007137;28;25125;-65
2023/07/27 10:04:46;;;;;;;5.68;3.38;;;;;;;;;;5007434;28;25166;-65
2023/07/27 10:07:12;;;;;;;3.60;3.28;;;;;;;;;;4991040;28;25089;-64
2023/07/27 10:09:38;;;;;;;4.57;3.70;;;;;;;;;;4999150;28;25158;-64
2023/07/27 10:12:04;;;;;;;4.53;3.55;;;;;;;;;;5002937;28;25084;-66
2023/07/27 10:14:31;;;;;;;5.85;4.07;;;;;;;;;;4994169;28;25097;-65
2023/07/27 10:16:58;;;;;;;3.60;3.30;;;;;;;;;;5015269;28;25135;-63
2023/07/27 10:19:24;;;;;;;4.82;4.32;;;;;;;;;;5002984;28;25052;-66
2023/07/27 10:21:51;;;;;;;4.63;3.97;;;;;;;;;;5005790;28;25070;-65
2023/07/27 10:24:24;;;;;;;3.63;3.33;;;;;;;;;;4997057;28;25060;-64
2023/07/27 10:26:51;;;;;;;5.72;3.30;;;;;;;;;;5014215;28;25089;-64
2023/07/27 10:29:19;;;;;;;4.05;3.70;;;;;;;;;;5014605;28;25066;-65
2023/07/27 10:31:46;;;;;;;3.67;3.38;;;;;;;;;;5003878;28;25137;-64
2023/07/27 10:34:12;;;;;;;4.70;3.60;;;;;;;;;;5006185;28;25074;-64
2023/07/27 10:36:51;;;;;;;3.08;2.80;;;;;;;;;;4995343;28;25064;-65
2023/07/27 10:39:18;;;;;;;2.80;2.60;;;;;;;;;;4994012;28;25102;-65
2023/07/27 10:42:01;;;;;;;2.47;2.28;;;;;;;;;;4993401;28;25062;-66
2023/07/27 10:44:48;;;;;;;3.28;2.97;;;;;;;;;;5001848;28;25054;-64
2023/07/27 10:47:15;;;;;;;3.40;3.10;;;;;;;;;;5000998;28;25083;-65
2023/07/27 10:49:48;;;;;;;2.33;2.20;;;;;;;;;;5011801;28;25091;-66
2023/07/27 10:52:15;;;;;;;2.28;2.08;;;;;;;;;;5005304;28;25080;-66
2023/07/27 10:54:42;;;;;;;3.08;2.08;;;;;;;;;;5001773;28;25068;-66
2023/07/27 10:57:09;;;;;;;2.90;2.50;;;;;;;;;;5008726;28;25082;-64
2023/07/27 10:59:39;;;;;;;2.25;2.05;;;;;;;;;;5007695;28;25072;-65
2023/07/27 11:02:25;;;;;;;2.40;2.20;;;;;;;;;;5011770;28;25078;-66
2023/07/27 11:04:52;;;;;;;2.08;1.98;;;;;;;;;;5008553;28;25058;-65
2023/07/27 11:07:26;;;;;;;2.15;2.03;;;;;;;;;;5004303;28;25084;-67
2023/07/27 11:09:52;;;;;;;2.67;2.47;;;;;;;;;;5007266;28;25142;-66
2023/07/27 11:12:17;;;;;;;2.80;2.60;;;;;;;;;;5010955;28;25069;-64
2023/07/27 11:14:43;;;;;;;2.42;2.22;;;;;;;;;;5003599;28;25135;-65
2023/07/27 11:17:11;;;;;;;4.20;2.35;;;;;;;;;;5003503;28;25061;-65
2023/07/27 11:19:37;;;;;;;4.07;1.80;;;;;;;;;;5004517;28;25071;-68
2023/07/27 11:22:04;;;;;;;3.10;2.05;;;;;;;;;;5004890;28;25089;-65
2023/07/27 11:24:30;;;;;;;1.73;1.63;;;;;;;;;;5000256;28;25060;-66
2023/07/27 11:26:56;;;;;;;1.58;1.48;;;;;;;;;;5000853;28;25062;-66
2023/07/27 11:29:22;;;;;;;2.17;1.50;;;;;;;;;;5001299;28;25164;-66
2023/07/27 11:31:52;;;;;;;2.30;1.70;;;;;;;;;;5005587;28;25079;-65
2023/07/27 11:34:21;;;;;;;2.15;1.67;;;;;;;;;;5001127;28;25075;-66
2023/07/27 11:36:50;;;;;;;2.63;1.52;;;;;;;;;;5014454;28;25085;-63
2023/07/27 11:39:16;;;;;;;1.80;1.70;;;;;;;;;;5009707;28;25130;-66
2023/07/27 11:41:42;;;;;;;1.98;1.50;;;;;;;;;;5008968;28;25142;-66
2023/07/27 11:44:08;;;;;;;1.58;1.48;;;;;;;;;;5005218;28;25141;-64
2023/07/27 11:46:41;;;;;;;2.50;1.38;;;;;;;;;;5009835;28;25105;-65
2023/07/27 11:49:08;;;;;;;0.95;0.95;;;;;;;;;;5010787;28;25071;-66
2023/07/27 11:51:34;;;;;;;1.10;1.10;;;;;;;;;;4996835;28;25080;-65
2023/07/27 11:54:00;;;;;;;1.85;0.98;;;;;;;;;;5005444;28;25056;-66
2023/07/27 11:56:26;;;;;;;0.80;0.80;;;;;;;;;;5002213;28;25066;-66
2023/07/27 11:58:52;;;;;;;0.70;0.70;;;;;;;;;;5002987;28;25129;-66
2023/07/27 12:01:18;;;;;;;1.42;0.80;;;;;;;;;;5011092;28;25087;-65
2023/07/27 12:03:44;;;;;;;0.95;0.93;;;;;;;;;;5006693;28;25060;-67
2023/07/27 12:06:10;;;;;;;1.27;1.10;;;;;;;;;;5002115;28;25063;-65
2023/07/27 12:08:38;;;;;;;2.95;1.17;;;;;;;;;;5001048;28;25073;-65
2023/07/27 12:11:04;;;;;;;2.90;0.90;;;;;;;;;;5000796;28;25056;-66
2023/07/27 12:13:30;;;;;;;2.25;1.23;;;;;;;;;;5006593;28;25164;-66
2023/07/27 12:15:57;;;;;;;3.85;2.00;;;;;;;;;;5012586;28;25109;-64
2023/07/27 12:18:24;;;;;;;7.70;2.63;;;;;;;;;;5004636;28;25078;-65
2023/07/27 12:20:50;;;;;;;7.10;3.15;;;;;;;;;;5008810;28;25047;-65
2023/07/27 12:23:16;;;;;;;12.43;3.60;;;;;;;;;;5006201;28;25099;-66
2023/07/27 12:25:42;;;;;;;9.65;3.47;;;;;;;;;;5007717;28;25084;-65
2023/07/27 12:28:08;;;;;;;12.68;4.57;;;;;;;;;;5009494;28;25068;-66
2023/07/27 12:30:34;;;;;;;10.13;4.75;;;;;;;;;;5009444;28;25116;-66
2023/07/27 12:33:00;;;;;;;13.88;4.30;;;;;;;;;;4991922;28;25094;-66
2023/07/27 12:35:28;;;;;;;17.88;4.80;;;;;;;;;;5004593;28;25139;-65
2023/07/27 12:37:55;;;;;;;17.17;5.10;;;;;;;;;;5000442;28;25154;-65
2023/07/27 12:40:21;;;;;;;10.18;4.28;;;;;;;;;;5007097;28;25063;-65
2023/07/27 12:42:47;;;;;;;14.27;5.80;;;;;;;;;;5003766;28;25120;-64
2023/07/27 12:45:13;;;;;;;16.10;5.18;;;;;;;;;;5006260;28;25061;-64
2023/07/27 12:47:42;;;;;;;16.27;5.53;;;;;;;;;;5011388;28;25134;-64
2023/07/27 12:50:08;;;;;;;12.23;5.15;;;;;;;;;;5006166;28;25074;-66
2023/07/27 12:52:34;;;;;;;16.45;5.00;;;;;;;;;;5009875;28;25079;-64
2023/07/27 12:55:00;;;;;;;16.20;5.57;;;;;;;;;;5013274;28;25059;-64
2023/07/27 12:57:26;;;;;;;18.33;5.20;;;;;;;;;;5001864;28;25049;-63
2023/07/27 12:59:52;;;;;;;15.50;5.40;;;;;;;;;;5009128;28;25107;-63
2023/07/27 13:02:18;;;;;;;15.35;4.95;;;;;;;;;;4999885;28;25063;-65
2023/07/27 13:04:45;;;;;;;15.98;4.30;;;;;;;;;;5004646;28;25150;-64
2023/07/27 13:07:13;;;;;;;16.65;4.82;;;;;;;;;;5000093;28;25060;-65
2023/07/27 13:09:39;;;;;;;14.05;5.80;;;;;;;;;;5003173;28;25154;-66
2023/07/27 13:12:05;;;;;;;16.70;4.43;;;;;;;;;;4999928;28;25069;-66
2023/07/27 13:14:31;;;;;;;13.70;4.70;;;;;;;;;;4994952;28;25061;-65
2023/07/27 13:16:57;;;;;;;11.52;4.80;;;;;;;;;;4998364;28;25133;-64
2023/07/27 13:19:23;;;;;;;18.55;4.85;;;;;;;;;;5006447;28;25159;-65
2023/07/27 13:21:49;;;;;;;11.07;4.82;;;;;;;;;;5002590;28;25166;-66
2023/07/27 13:24:15;;;;;;;17.23;5.53;;;;;;;;;;5015268;28;25057;-67
2023/07/27 13:26:41;;;;;;;13.93;6.10;;;;;;;;;;5015244;28;24751;-67
2023/07/27 13:29:08;;;;;;;13.25;5.78;;;;;;;;;;5020612;28;25166;-64
2023/07/27 13:31:34;;;;;;;17.88;5.45;;;;;;;;;;5002392;28;25108;-65
2023/07/27 13:34:00;;;;;;;15.88;6.43;;;;;;;;;;5003501;28;25086;-65
2023/07/27 13:36:26;;;;;;;16.35;5.25;;;;;;;;;;5001804;28;25058;-65
2023/07/27 13:38:52;;;;;;;12.23;5.00;;;;;;;;;;5007779;28;25083;-66
2023/07/27 13:41:17;;;;;;;11.63;4.60;;;;;;;;;;5000381;28;25083;-65
2023/07/27 13:43:43;;;;;;;12.90;4.80;;;;;;;;;;5000965;28;25062;-64
2023/07/27 13:46:09;;;;;;;12.57;4.32;;;;;;;;;;5003840;28;25098;-64
2023/07/27 13:48:35;;;;;;;11.63;4.85;;;;;;;;;;5009215;28;25099;-66
2023/07/27 13:51:01;;;;;;;11.98;4.20;;;;;;;;;;5006755;28;25071;-66
2023/07/27 13:53:27;;;;;;;14.55;4.70;;;;;;;;;;5003980;28;25098;-63
2023/07/27 13:55:53;;;;;;;9.38;4.60;;;;;;;;;;4998090;28;25051;-66
2023/07/27 13:58:19;;;;;;;7.13;4.38;;;;;;;;;;5006765;28;25058;-64
2023/07/27 14:00:46;;;;;;;8.30;3.97;;;;;;;;;;5005058;28;25075;-65
2023/07/27 14:03:13;;;;;;;10.18;4.82;;;;;;;;;;4993743;28;25139;-66
2023/07/27 14:05:39;;;;;;;7.63;4.70;;;;;;;;;;4994969;28;25042;-65
2023/07/27 14:08:05;;;;;;;7.65;4.45;;;;;;;;;;4997947;28;25050;-65
2023/07/27 14:10:31;;;;;;;6.68;3.92;;;;;;;;;;5011409;28;25126;-65
2023/07/27 14:12:57;;;;;;;6.25;3.92;;;;;;;;;;4999096;28;25118;-65
2023/07/27 14:15:23;;;;;;;8.75;4.40;;;;;;;;;;5003111;28;25083;-65
2023/07/27 14:17:49;;;;;;;9.32;5.68;;;;;;;;;;5008581;28;25057;-66
2023/07/27 14:20:15;;;;;;;8.82;6.00;;;;;;;;;;5009444;28;25161;-65
2023/07/27 14:22:41;;;;;;;12.48;4.65;;;;;;;;;;4997022;28;25073;-66
2023/07/27 14:25:07;;;;;;;11.25;4.70;;;;;;;;;;5013024;28;25060;-65
2023/07/27 14:27:33;;;;;;;7.82;4.18;;;;;;;;;;5002530;28;25082;-67
2023/07/27 14:30:01;;;;;;;10.77;3.97;;;;;;;;;;5003185;28;25068;-64
2023/07/27 14:32:27;;;;;;;6.75;3.88;;;;;;;;;;5010295;28;25067;-65
2023/07/27 14:34:53;;;;;;;6.82;3.83;;;;;;;;;;5016702;28;25088;-65